Time;durP1;ratioP1;P1;durP2;ratioP2;P2;SDS_P1;SDS_P2;PMS_P1;PMS_P2;Temp;Humidity;BMP_temperature;BMP_pressure;BME280_temperature;BME280_humidity;BME280_pressure;Samples;Min_cycle;Max_cycle;Signal;HPM_P1;HPM_P2
2021/07/23 00:02:23;;;;;;;15.45;8.23;;;;;;;19.83;65.09;100509.88;4902014;28;98941;-92
2021/07/23 00:04:49;;;;;;;16.90;8.85;;;;;;;19.87;64.97;100510.53;4902878;28;96762;-92
2021/07/23 00:07:14;;;;;;;13.23;8.35;;;;;;;19.86;64.93;100509.66;4902806;28;96931;-92
2021/07/23 00:09:40;;;;;;;11.40;7.20;;;;;;;19.80;65.25;100510.09;4898296;28;100017;-91
2021/07/23 00:12:06;;;;;;;11.63;8.52;;;;;;;19.80;65.16;100507.44;4899561;28;97683;-91
2021/07/23 00:14:31;;;;;;;15.20;7.70;;;;;;;19.87;65.14;100513.22;4899316;28;97334;-92
2021/07/23 00:16:57;;;;;;;14.02;8.18;;;;;;;19.86;65.09;100507.00;4899907;28;97149;-92
2021/07/23 00:19:23;;;;;;;12.50;7.88;;;;;;;19.79;65.42;100505.75;4915197;28;100496;-91
2021/07/23 00:21:48;;;;;;;14.70;8.48;;;;;;;19.78;65.34;100508.50;4915553;28;101539;-92
2021/07/23 00:24:13;;;;;;;16.90;7.95;;;;;;;19.87;64.92;100519.38;4883491;28;96949;-91
2021/07/23 00:26:39;;;;;;;14.20;8.02;;;;;;;19.76;65.52;100508.63;4883245;28;97272;-91
2021/07/23 00:29:05;;;;;;;16.70;8.77;;;;;;;19.79;65.29;100508.41;4899460;28;101085;-91
2021/07/23 00:31:30;;;;;;;15.85;10.10;;;;;;;19.77;65.55;100501.47;4910905;28;98596;-91
2021/07/23 00:33:56;;;;;;;13.02;7.85;;;;;;;19.62;66.15;100496.22;4933762;28;97221;-91
2021/07/23 00:36:21;;;;;;;16.83;8.63;;;;;;;19.55;66.22;100502.94;4933671;28;97055;-89
2021/07/23 00:38:47;;;;;;;12.52;8.45;;;;;;;19.50;66.66;100499.72;4934179;28;100185;-91
2021/07/23 00:41:13;;;;;;;13.48;8.07;;;;;;;19.49;66.70;100503.38;4924472;28;100735;-91
2021/07/23 00:43:38;;;;;;;10.98;8.13;;;;;;;19.42;66.99;100499.41;4932861;28;96801;-91
2021/07/23 00:46:04;;;;;;;16.10;8.73;;;;;;;19.47;66.25;100507.09;4919600;28;96644;-91
2021/07/23 00:48:30;;;;;;;16.05;8.80;;;;;;;19.52;66.05;100505.81;4919211;28;98630;-91
2021/07/23 00:50:56;;;;;;;14.02;9.02;;;;;;;19.49;66.11;100494.50;4931745;28;98237;-92
2021/07/23 00:53:22;;;;;;;13.77;9.02;;;;;;;19.48;66.08;100500.78;4933282;28;96791;-88
2021/07/23 00:55:53;;;;;;;13.77;8.38;;;;;;;19.44;66.43;100498.34;4901668;28;96778;-91
2021/07/23 00:58:19;;;;;;;14.85;9.38;;;;;;;19.39;66.47;100499.59;4917407;28;98622;-91
2021/07/23 01:00:45;;;;;;;15.10;9.00;;;;;;;19.44;66.36;100487.69;4901490;28;100192;-91
2021/07/23 01:03:12;;;;;;;12.13;9.00;;;;;;;19.44;66.62;100490.34;4902590;28;96685;-91
2021/07/23 01:05:38;;;;;;;15.77;9.10;;;;;;;19.45;66.58;100491.19;4934106;28;97042;-91
2021/07/23 01:08:06;;;;;;;12.27;8.80;;;;;;;19.41;66.56;100492.38;4902635;28;100185;-91
2021/07/23 01:10:38;;;;;;;12.90;7.90;;;;;;;19.55;65.81;100491.44;4902377;28;101156;-91
2021/07/23 01:13:27;;;;;;;12.32;8.13;;;;;;;19.37;66.94;100497.06;4905311;28;96855;-91
2021/07/23 01:15:52;;;;;;;12.98;8.65;;;;;;;19.36;67.10;100502.47;4917154;28;96932;-91
2021/07/23 01:18:20;;;;;;;11.68;8.10;;;;;;;19.36;66.93;100499.81;4933658;28;99763;-91
2021/07/23 01:20:54;;;;;;;16.80;9.23;;;;;;;19.38;66.80;100495.25;4919482;28;101617;-91
2021/07/23 01:23:39;;;;;;;16.48;8.00;;;;;;;19.48;66.63;100498.13;4934499;28;97187;-91
2021/07/23 01:26:19;;;;;;;15.55;8.65;;;;;;;19.44;66.71;100495.69;4934602;28;97017;-91
2021/07/23 01:28:47;;;;;;;13.75;8.77;;;;;;;19.41;66.73;100495.03;4933360;28;100682;-91
2021/07/23 01:31:13;;;;;;;14.35;8.95;;;;;;;19.28;67.02;100492.34;4902323;28;100875;-91
2021/07/23 01:33:39;;;;;;;12.30;7.65;;;;;;;19.32;66.93;100495.69;4907176;28;97020;-91
2021/07/23 01:36:07;;;;;;;15.38;9.32;;;;;;;19.36;66.43;100500.66;4914540;28;97347;-91
2021/07/23 01:38:40;;;;;;;14.82;10.00;;;;;;;19.39;66.25;100503.13;4912691;28;101268;-91
2021/07/23 01:41:06;;;;;;;12.73;9.45;;;;;;;19.27;66.70;100495.97;4913678;28;101200;-91
2021/07/23 01:43:32;;;;;;;14.13;9.02;;;;;;;19.22;67.04;100490.09;4897691;28;96620;-91
2021/07/23 01:45:59;;;;;;;17.35;9.80;;;;;;;19.28;66.41;100499.47;4913726;28;96860;-91
2021/07/23 01:48:40;;;;;;;14.35;8.77;;;;;;;19.22;66.66;100490.09;4910623;28;97860;-91
2021/07/23 01:51:14;;;;;;;14.38;9.57;;;;;;;19.43;66.15;100499.31;4914992;28;100395;-92
2021/07/23 01:53:40;;;;;;;16.60;10.43;;;;;;;19.56;65.67;100499.31;4914027;28;96996;-91
2021/07/23 01:56:05;;;;;;;16.75;10.57;;;;;;;19.48;65.61;100491.00;4933591;28;97056;-92
2021/07/23 01:58:34;;;;;;;18.83;10.30;;;;;;;19.20;66.07;100484.91;4932620;28;101204;-91
2021/07/23 02:01:02;;;;;;;16.92;9.85;;;;;;;19.05;67.03;100496.53;4917366;28;101755;-91
2021/07/23 02:03:32;;;;;;;18.02;10.43;;;;;;;19.05;66.92;100499.19;4932348;28;96642;-93
2021/07/23 02:05:57;;;;;;;17.67;9.98;;;;;;;19.07;66.64;100494.63;4933649;28;96583;-91
2021/07/23 02:08:27;;;;;;;17.10;9.82;;;;;;;19.13;66.55;100498.69;4917274;28;101029;-88
2021/07/23 02:10:54;;;;;;;15.90;9.88;;;;;;;19.20;66.40;100494.69;4932931;28;101739;-92
2021/07/23 02:13:19;;;;;;;14.07;9.00;;;;;;;19.21;66.43;100493.72;4917282;28;96894;-92
2021/07/23 02:15:45;;;;;;;13.00;8.73;;;;;;;19.13;66.71;100488.06;4913630;28;99079;-92
2021/07/23 02:18:17;;;;;;;15.32;9.35;;;;;;;19.26;66.33;100493.41;4917463;28;101761;-92
2021/07/23 02:20:45;;;;;;;17.85;10.27;;;;;;;19.17;66.47;100501.06;4900808;28;100710;-92
2021/07/23 02:23:11;;;;;;;17.13;9.93;;;;;;;19.27;65.67;100495.97;4933489;28;96635;-92
2021/07/23 02:25:43;;;;;;;13.35;9.05;;;;;;;19.26;65.80;100493.41;4917574;28;96965;-92
2021/07/23 02:28:09;;;;;;;18.95;9.52;;;;;;;19.32;65.10;100487.69;4916792;28;101899;-92
2021/07/23 02:30:39;;;;;;;16.58;10.00;;;;;;;19.37;65.13;100497.06;4901715;28;101472;-92
2021/07/23 02:33:26;;;;;;;14.82;9.27;;;;;;;19.17;65.54;100492.25;4933461;28;96942;-92
2021/07/23 02:36:04;;;;;;;15.48;9.60;;;;;;;19.21;65.46;100489.25;4899579;28;99358;-91
2021/07/23 02:38:31;;;;;;;16.42;9.70;;;;;;;19.12;65.81;100484.56;4932071;28;101636;-88
2021/07/23 02:41:02;;;;;;;12.73;9.37;;;;;;;19.20;65.50;100490.22;4932397;28;100770;-91
2021/07/23 02:43:28;;;;;;;15.95;10.70;;;;;;;19.38;64.13;100489.94;4949056;28;96742;-92
2021/07/23 02:45:54;;;;;;;16.80;9.70;;;;;;;19.28;64.65;100484.34;4916764;28;96867;-92
2021/07/23 02:48:21;;;;;;;20.10;11.13;;;;;;;19.24;64.55;100488.19;4933100;28;98395;-91
2021/07/23 02:50:46;;;;;;;13.93;9.85;;;;;;;19.22;64.54;100482.97;4932234;28;97284;-91
2021/07/23 02:53:12;;;;;;;20.52;10.45;;;;;;;19.12;65.01;100476.56;4932234;28;96611;-91
2021/07/23 02:55:41;;;;;;;13.65;9.63;;;;;;;19.09;65.40;100476.78;4915373;28;96828;-92
2021/07/23 02:58:07;;;;;;;17.52;9.68;;;;;;;19.08;65.55;100474.22;4914844;28;101109;-91
2021/07/23 03:00:33;;;;;;;14.10;9.27;;;;;;;19.08;65.44;100471.53;4911631;28;100040;-87
2021/07/23 03:03:04;;;;;;;13.05;9.70;;;;;;;19.07;65.73;100473.34;4913172;28;96628;-91
2021/07/23 03:05:30;;;;;;;16.02;9.80;;;;;;;19.10;65.33;100464.31;4913210;28;97100;-90
2021/07/23 03:07:59;;;;;;;16.30;9.75;;;;;;;19.14;65.29;100460.50;4897932;28;101605;-92
2021/07/23 03:10:27;;;;;;;12.27;9.05;;;;;;;19.20;65.17;100460.09;4913404;28;101124;-91
2021/07/23 03:12:53;;;;;;;17.63;9.50;;;;;;;19.19;65.02;100469.88;4912844;28;96587;-91
2021/07/23 03:15:19;;;;;;;13.05;9.23;;;;;;;19.20;65.41;100462.75;4913196;28;96908;-92
2021/07/23 03:17:47;;;;;;;14.95;9.38;;;;;;;19.14;65.53;100450.72;4898662;28;100231;-90
2021/07/23 03:20:13;;;;;;;19.23;9.52;;;;;;;19.15;65.89;100455.06;4931185;28;97922;-90
2021/07/23 03:22:40;;;;;;;15.20;9.10;;;;;;;19.14;66.03;100463.16;4931110;28;96651;-90
2021/07/23 03:25:16;;;;;;;13.85;9.07;;;;;;;19.11;66.08;100453.59;4934791;28;96574;-89
2021/07/23 03:28:02;;;;;;;15.30;8.98;;;;;;;19.10;66.31;100462.50;4936538;28;100165;-91
2021/07/23 03:30:38;;;;;;;11.85;8.70;;;;;;;19.11;66.28;100447.41;4903417;28;100457;-89
2021/07/23 03:33:06;;;;;;;13.05;8.90;;;;;;;19.20;66.06;100458.28;4917810;28;97090;-91
2021/07/23 03:35:34;;;;;;;11.15;8.18;;;;;;;19.14;66.26;100449.84;4933435;28;96439;-88
2021/07/23 03:38:02;;;;;;;19.27;8.68;;;;;;;19.16;65.92;100447.94;4933690;28;100431;-91
2021/07/23 03:40:29;;;;;;;16.05;9.48;;;;;;;19.15;66.16;100449.75;4934655;28;101137;-91
2021/07/23 03:42:59;;;;;;;17.60;9.93;;;;;;;19.16;66.29;100456.78;4949912;28;97736;-91
2021/07/23 03:45:39;;;;;;;14.18;9.50;;;;;;;19.20;66.15;100455.63;4945490;28;96954;-91
2021/07/23 03:48:10;;;;;;;14.52;9.15;;;;;;;19.19;66.26;100448.56;4923677;28;101159;-92
2021/07/23 03:50:41;;;;;;;14.50;9.95;;;;;;;19.24;66.08;100450.94;4932095;28;100101;-91
2021/07/23 03:53:09;;;;;;;12.95;8.10;;;;;;;19.27;66.12;100458.72;4932070;28;97251;-91
2021/07/23 03:55:46;;;;;;;11.00;8.00;;;;;;;19.24;66.32;100456.25;4928690;28;97076;-91
2021/07/23 03:58:23;;;;;;;16.73;9.65;;;;;;;19.16;66.48;100448.78;4898857;28;99646;-91
2021/07/23 04:00:50;;;;;;;17.85;9.65;;;;;;;19.23;66.25;100451.91;4911409;28;99687;-90
2021/07/23 04:03:16;;;;;;;14.77;9.73;;;;;;;19.25;65.92;100446.47;4912306;28;96767;-92
2021/07/23 04:05:44;;;;;;;19.67;9.63;;;;;;;19.25;66.03;100443.81;4911416;28;96968;-91
2021/07/23 04:08:11;;;;;;;15.75;8.93;;;;;;;19.39;65.69;100441.06;4912034;28;99162;-91
2021/07/23 04:10:39;;;;;;;14.18;9.02;;;;;;;19.44;65.74;100441.59;4911950;28;98745;-88
2021/07/23 04:13:05;;;;;;;17.60;8.82;;;;;;;19.31;65.92;100446.88;4912964;28;97368;-91
2021/07/23 04:15:39;;;;;;;15.02;9.63;;;;;;;19.48;65.44;100442.22;4912809;28;96762;-89
2021/07/23 04:18:11;;;;;;;19.35;9.38;;;;;;;19.42;65.61;100433.69;4912221;28;102096;-92
2021/07/23 04:20:47;;;;;;;13.50;9.77;;;;;;;19.33;65.98;100437.00;4914529;28;100709;-91
2021/07/23 04:23:14;;;;;;;16.45;9.30;;;;;;;19.42;65.75;100447.00;4915225;28;96975;-91
2021/07/23 04:25:40;;;;;;;14.52;9.52;;;;;;;19.37;66.29;100449.16;4914993;28;97111;-86
2021/07/23 04:28:08;;;;;;;14.77;9.60;;;;;;;19.43;66.12;100446.06;4931621;28;100118;-92
2021/07/23 04:30:42;;;;;;;16.60;8.60;;;;;;;19.55;65.61;100443.53;4931205;28;97022;-91
2021/07/23 04:33:18;;;;;;;14.60;9.20;;;;;;;19.41;65.90;100444.47;4901826;28;96656;-92
2021/07/23 04:35:58;;;;;;;13.97;9.63;;;;;;;19.37;66.19;100442.97;4906119;28;97256;-91
2021/07/23 04:38:25;;;;;;;17.95;10.30;;;;;;;19.37;65.96;100446.50;4918491;28;100420;-92
2021/07/23 04:40:55;;;;;;;15.50;9.40;;;;;;;19.53;65.75;100445.44;4909260;28;101096;-91
2021/07/23 04:43:38;;;;;;;14.98;8.95;;;;;;;19.56;65.59;100446.06;4914929;28;97285;-91
2021/07/23 04:46:05;;;;;;;15.10;8.88;;;;;;;19.57;65.80;100449.56;4914879;28;96933;-91
2021/07/23 04:48:32;;;;;;;16.90;9.25;;;;;;;19.55;65.87;100451.50;4915189;28;100560;-91
2021/07/23 04:51:09;;;;;;;18.15;9.98;;;;;;;19.79;65.09;100448.97;4925626;28;101415;-91
2021/07/23 04:53:41;;;;;;;13.45;9.20;;;;;;;19.70;65.23;100439.81;4931584;28;96688;-86
2021/07/23 04:56:28;;;;;;;13.80;8.50;;;;;;;19.75;65.21;100437.69;4933829;28;96735;-92
2021/07/23 04:58:53;;;;;;;13.02;8.73;;;;;;;19.76;65.32;100439.38;4917136;28;100540;-91
2021/07/23 05:01:19;;;;;;;12.23;8.65;;;;;;;19.81;65.07;100442.56;4929895;28;101138;-91
2021/07/23 05:03:44;;;;;;;17.75;9.40;;;;;;;19.97;64.83;100447.66;4933526;28;96887;-91
2021/07/23 05:06:11;;;;;;;13.50;8.40;;;;;;;20.09;64.42;100438.78;4934001;28;96968;-92
2021/07/23 05:08:37;;;;;;;19.33;9.80;;;;;;;20.28;63.77;100435.66;4933690;28;100016;-91
2021/07/23 05:11:09;;;;;;;16.55;10.00;;;;;;;20.24;63.54;100430.63;4917672;28;99781;-91
2021/07/23 05:13:35;;;;;;;21.98;10.85;;;;;;;20.37;62.85;100434.13;4934340;28;96667;-91
2021/07/23 05:16:02;;;;;;;20.70;10.15;;;;;;;20.45;62.82;100436.22;4918041;28;97249;-91
2021/07/23 05:18:28;;;;;;;15.15;9.85;;;;;;;20.63;62.38;100428.72;4917886;28;100688;-91
2021/07/23 05:20:53;;;;;;;15.80;9.77;;;;;;;20.76;61.84;100430.34;4933313;28;101537;-91
2021/07/23 05:23:19;;;;;;;18.90;10.48;;;;;;;20.80;61.67;100433.66;4931711;28;97410;-90
2021/07/23 05:25:45;;;;;;;18.45;9.60;;;;;;;20.88;61.41;100433.06;4900707;28;97328;-89
2021/07/23 05:28:10;;;;;;;19.48;10.63;;;;;;;21.11;61.05;100434.81;4901226;28;102088;-89
2021/07/23 05:30:36;;;;;;;17.38;10.75;;;;;;;21.20;60.82;100425.25;4917389;28;101089;-91
2021/07/23 05:33:01;;;;;;;17.42;11.00;;;;;;;21.34;60.86;100427.72;4900777;28;96813;-91
2021/07/23 05:35:27;;;;;;;22.75;10.07;;;;;;;21.56;60.69;100424.28;4933784;28;96814;-91
2021/07/23 05:37:52;;;;;;;15.43;10.73;;;;;;;21.75;60.48;100418.31;4923130;28;98387;-90
2021/07/23 05:40:18;;;;;;;21.35;10.55;;;;;;;21.93;60.33;100422.22;4946214;28;101317;-90
2021/07/23 05:42:43;;;;;;;21.05;10.43;;;;;;;22.29;59.61;100419.41;4925354;28;96905;-85
2021/07/23 05:45:09;;;;;;;14.88;9.68;;;;;;;22.41;59.86;100423.75;4915595;28;96877;-89
2021/07/23 05:47:35;;;;;;;18.02;9.65;;;;;;;22.44;58.61;100430.66;4897907;28;100072;-90
2021/07/23 05:50:01;;;;;;;17.98;10.52;;;;;;;22.43;58.33;100419.13;4913932;28;100453;-90
2021/07/23 05:52:26;;;;;;;20.52;10.55;;;;;;;22.86;57.20;100420.88;4914118;28;96612;-90
2021/07/23 05:54:52;;;;;;;24.65;12.07;;;;;;;23.33;56.21;100418.72;4898197;28;97016;-89
2021/07/23 05:57:17;;;;;;;16.42;10.18;;;;;;;24.07;54.67;100417.66;4913941;28;101760;-90
2021/07/23 05:59:45;;;;;;;19.05;11.35;;;;;;;25.60;51.42;100416.09;4914874;28;98456;-92
2021/07/23 06:02:11;;;;;;;20.08;10.23;;;;;;;25.45;51.47;100416.59;4882089;28;96659;-92
2021/07/23 06:04:36;;;;;;;15.63;9.57;;;;;;;25.11;51.81;100424.28;4914470;28;96800;-91
2021/07/23 06:07:06;;;;;;;21.50;10.55;;;;;;;25.19;51.34;100418.19;4897126;28;101091;-91
2021/07/23 06:09:32;;;;;;;21.83;10.63;;;;;;;25.99;48.62;100411.44;4897499;28;101200;-91
2021/07/23 06:11:58;;;;;;;17.33;9.35;;;;;;;26.98;45.78;100422.22;4912253;28;97402;-89
2021/07/23 06:14:23;;;;;;;18.65;8.55;;;;;;;26.21;47.47;100418.28;4897892;28;97253;-91
2021/07/23 06:16:49;;;;;;;20.25;9.70;;;;;;;25.65;48.97;100422.72;4913053;28;98599;-86
2021/07/23 06:19:14;;;;;;;18.67;9.05;;;;;;;25.75;48.50;100420.03;4915697;28;101221;-92
2021/07/23 06:21:40;;;;;;;14.30;9.50;;;;;;;28.46;43.26;100414.97;4901421;28;97307;-91
2021/07/23 06:24:05;;;;;;;10.77;8.30;;;;;;;27.20;45.73;100411.97;4917587;28;97461;-91
2021/07/23 06:26:31;;;;;;;16.23;8.90;;;;;;;27.33;45.87;100417.81;4900631;28;99860;-92
2021/07/23 06:28:56;;;;;;;15.98;8.52;;;;;;;29.77;41.55;100402.25;4916186;28;102600;-92
2021/07/23 06:31:22;;;;;;;12.93;8.18;;;;;;;28.27;43.98;100406.13;4916866;28;97044;-92
2021/07/23 06:33:48;;;;;;;12.75;7.78;;;;;;;27.39;43.80;100397.47;4900458;28;96898;-89
2021/07/23 06:36:14;;;;;;;10.90;8.00;;;;;;;26.95;44.06;100394.78;4915909;28;101559;-91
2021/07/23 06:38:39;;;;;;;13.73;8.25;;;;;;;27.15;44.11;100407.06;4916835;28;97340;-92
2021/07/23 06:41:06;;;;;;;10.50;7.32;;;;;;;27.24;43.35;100398.03;4899293;28;97334;-92
2021/07/23 06:43:32;;;;;;;16.75;7.35;;;;;;;27.40;43.05;100401.84;4916544;28;96877;-92
2021/07/23 06:45:59;;;;;;;9.45;7.60;;;;;;;28.22;41.66;100403.09;4911615;28;101012;-92
2021/07/23 06:48:25;;;;;;;13.88;8.43;;;;;;;29.31;39.61;100402.00;4906655;28;100705;-91
2021/07/23 06:50:50;;;;;;;12.63;7.43;;;;;;;29.61;39.36;100405.78;4896787;28;96798;-89
2021/07/23 06:53:16;;;;;;;9.93;7.57;;;;;;;31.19;37.11;100400.16;4881805;28;97042;-92
2021/07/23 06:55:42;;;;;;;14.93;8.13;;;;;;;31.61;36.17;100396.84;4892082;28;101553;-92
2021/07/23 06:58:08;;;;;;;14.10;8.52;;;;;;;29.87;39.01;100399.31;4896778;28;101647;-92
2021/07/23 07:00:33;;;;;;;15.27;8.80;;;;;;;29.16;40.69;100395.63;4912575;28;97788;-92
2021/07/23 07:03:00;;;;;;;15.40;8.43;;;;;;;28.69;41.30;100397.13;4912330;28;97235;-92
2021/07/23 07:05:25;;;;;;;11.15;7.47;;;;;;;28.44;42.00;100402.47;4913225;28;100250;-92
2021/07/23 07:07:51;;;;;;;13.68;7.57;;;;;;;28.44;41.77;100398.94;4915350;28;101280;-88
2021/07/23 07:10:16;;;;;;;13.07;8.38;;;;;;;28.78;40.88;100395.28;4899688;28;96620;-91
2021/07/23 07:12:42;;;;;;;9.63;7.55;;;;;;;28.43;40.88;100390.00;4887472;28;96898;-91
2021/07/23 07:15:08;;;;;;;11.85;6.95;;;;;;;28.49;40.84;100404.69;4908396;28;100330;-91
2021/07/23 07:17:34;;;;;;;12.50;6.13;;;;;;;28.74;39.54;100407.41;4922584;28;98801;-89
2021/07/23 07:19:59;;;;;;;13.52;6.85;;;;;;;28.51;39.50;100404.50;4899257;28;96901;-89
2021/07/23 07:22:26;;;;;;;12.30;6.30;;;;;;;28.77;39.08;100394.44;4899289;28;96893;-91
2021/07/23 07:24:52;;;;;;;10.50;6.65;;;;;;;29.14;39.10;100395.78;4914604;28;101752;-88
2021/07/23 07:27:17;;;;;;;10.13;6.03;;;;;;;30.47;37.54;100398.69;4915246;28;101401;-92
2021/07/23 07:29:43;;;;;;;14.43;6.15;;;;;;;30.42;36.65;100392.94;4899712;28;96679;-91
2021/07/23 07:32:09;;;;;;;10.40;6.30;;;;;;;30.98;35.41;100398.13;4899042;28;96785;-89
2021/07/23 07:34:35;;;;;;;7.28;6.10;;;;;;;30.85;35.82;100394.19;4925356;28;101450;-81
2021/07/23 07:37:01;;;;;;;7.72;5.32;;;;;;;30.92;34.67;100399.69;4908111;28;100764;-84
2021/07/23 07:39:28;;;;;;;9.30;5.72;;;;;;;30.94;34.18;100389.53;4928403;28;97097;-85
2021/07/23 07:41:53;;;;;;;8.13;5.45;;;;;;;31.78;33.09;100394.78;4901164;28;97575;-86
2021/07/23 07:44:19;;;;;;;8.82;5.97;;;;;;;32.09;32.35;100391.03;4924037;28;101516;-84
2021/07/23 07:46:44;;;;;;;25.20;6.53;;;;;;;31.63;32.57;100388.53;4936620;28;101638;-84
2021/07/23 07:49:10;;;;;;;6.68;5.45;;;;;;;32.03;32.38;100387.19;4926682;28;96907;-83
2021/07/23 07:51:35;;;;;;;6.65;5.13;;;;;;;32.18;32.39;100385.28;4897031;28;97592;-84
2021/07/23 07:54:01;;;;;;;9.63;5.28;;;;;;;32.16;31.76;100384.63;4929465;28;97978;-83
2021/07/23 07:56:26;;;;;;;9.05;5.20;;;;;;;32.16;31.73;100391.94;4929431;28;101313;-83
2021/07/23 07:58:52;;;;;;;8.40;4.97;;;;;;;32.24;31.13;100391.81;4929828;28;97019;-84
2021/07/23 08:01:17;;;;;;;9.15;5.47;;;;;;;32.30;30.38;100388.31;4913313;28;96988;-83
2021/07/23 08:03:43;;;;;;;6.97;4.85;;;;;;;32.37;31.23;100380.25;4913069;28;101783;-84
2021/07/23 08:09:06;;;;;;;7.55;5.20;;;;;;;33.20;29.81;100376.03;4918408;28;97082;-82
2021/07/23 08:11:32;;;;;;;5.78;4.82;;;;;;;32.79;29.19;100384.03;4927994;28;97463;-82
2021/07/23 08:13:58;;;;;;;5.90;5.28;;;;;;;33.24;30.21;100381.88;4931104;28;98511;-83
2021/07/23 08:16:24;;;;;;;7.15;5.07;;;;;;;33.52;30.58;100376.47;4927868;28;101369;-87
2021/07/23 08:18:49;;;;;;;6.47;4.72;;;;;;;34.05;29.36;100376.72;4900081;28;97315;-86
2021/07/23 08:21:15;;;;;;;5.35;4.50;;;;;;;34.49;28.46;100373.44;4933138;28;97228;-88
2021/07/23 08:23:40;;;;;;;10.85;4.93;;;;;;;35.53;27.30;100377.44;4933930;28;98236;-86
2021/07/23 08:26:06;;;;;;;7.40;5.00;;;;;;;35.36;26.58;100376.22;4932337;28;101654;-86
2021/07/23 08:28:32;;;;;;;6.15;5.35;;;;;;;36.12;25.97;100378.28;4915181;28;96888;-88
2021/07/23 08:30:58;;;;;;;8.65;5.00;;;;;;;36.14;26.13;100373.44;4908072;28;96725;-83
2021/07/23 08:33:24;;;;;;;5.38;4.88;;;;;;;35.96;26.63;100373.31;4890571;28;101176;-83
2021/07/23 08:35:50;;;;;;;5.32;4.82;;;;;;;37.03;24.12;100378.94;4928996;28;101240;-83
2021/07/23 08:38:16;;;;;;;10.48;5.30;;;;;;;36.41;25.65;100376.84;4928923;28;97390;-84
2021/07/23 08:40:42;;;;;;;6.63;4.55;;;;;;;35.92;26.68;100372.06;4898813;28;97470;-82
2021/07/23 08:43:08;;;;;;;7.68;4.63;;;;;;;35.95;26.14;100372.44;4912533;28;98629;-83
2021/07/23 08:45:33;;;;;;;5.07;4.55;;;;;;;35.78;26.01;100376.72;4915304;28;97612;-83
2021/07/23 08:47:59;;;;;;;6.60;4.63;;;;;;;36.36;26.21;100364.91;4933625;28;96994;-83
2021/07/23 08:50:25;;;;;;;6.97;4.95;;;;;;;36.15;26.85;100363.34;4939921;28;97088;-83
2021/07/23 08:52:54;;;;;;;5.22;4.40;;;;;;;36.41;26.81;100367.81;4931151;28;101536;-82
2021/07/23 08:55:19;;;;;;;7.00;5.63;;;;;;;37.39;25.37;100373.53;4908609;28;101650;-84
2021/07/23 08:57:46;;;;;;;6.03;4.90;;;;;;;37.88;25.44;100362.66;4911241;28;98127;-83
2021/07/23 09:00:14;;;;;;;5.80;4.80;;;;;;;37.77;24.35;100366.16;4924083;28;97441;-84
2021/07/23 09:02:55;;;;;;;5.35;4.85;;;;;;;37.41;24.56;100362.38;4930830;28;98023;-89
2021/07/23 09:05:22;;;;;;;5.85;4.80;;;;;;;37.26;24.20;100359.13;4947881;28;101104;-93
2021/07/23 09:07:48;;;;;;;5.57;4.80;;;;;;;37.77;23.45;100358.78;4929188;28;97059;-92
2021/07/23 09:10:22;;;;;;;5.65;4.65;;;;;;;37.89;24.28;100353.38;4896990;28;97394;-91
2021/07/23 09:12:50;;;;;;;5.15;4.43;;;;;;;37.98;24.53;100353.91;4932947;28;100944;-92
2021/07/23 09:15:18;;;;;;;8.82;4.53;;;;;;;37.86;25.33;100356.56;4936295;28;101454;-86
2021/07/23 09:17:44;;;;;;;5.38;4.65;;;;;;;37.69;23.24;100350.88;4915761;28;97183;-85
2021/07/23 09:20:10;;;;;;;6.80;4.70;;;;;;;36.91;24.90;100355.03;4930017;28;97062;-85
2021/07/23 09:23:03;;;;;;;9.88;5.03;;;;;;;36.54;25.56;100350.50;4930535;28;101430;-89
2021/07/23 09:25:32;;;;;;;6.57;4.57;;;;;;;36.11;25.92;100348.47;4899119;28;100975;-84
2021/07/23 09:27:58;;;;;;;5.18;4.50;;;;;;;35.77;26.96;100354.06;4917015;28;97526;-85
2021/07/23 09:30:56;;;;;;;6.93;4.90;;;;;;;35.34;26.54;100348.28;4933727;28;97295;-85
2021/07/23 09:33:24;;;;;;;6.60;4.73;;;;;;;35.12;26.02;100351.28;4904991;28;101268;-85
2021/07/23 09:35:51;;;;;;;5.50;4.85;;;;;;;34.97;26.83;100342.47;4911971;28;101817;-84
2021/07/23 09:38:18;;;;;;;7.25;4.93;;;;;;;34.91;28.15;100346.88;4896464;28;97041;-85
2021/07/23 09:40:44;;;;;;;5.32;4.82;;;;;;;35.11;27.91;100346.91;4895209;28;97055;-85
2021/07/23 09:43:10;;;;;;;8.55;5.32;;;;;;;34.83;27.77;100338.91;4930358;28;101475;-85
2021/07/23 09:45:36;;;;;;;5.78;5.28;;;;;;;34.73;27.05;100335.75;4930963;28;100850;-85
2021/07/23 09:48:11;;;;;;;5.65;5.15;;;;;;;34.20;27.34;100331.06;4909200;28;98130;-85
2021/07/23 09:50:46;;;;;;;7.82;5.00;;;;;;;33.82;28.07;100328.00;4921179;28;97063;-85
2021/07/23 09:53:13;;;;;;;6.05;4.93;;;;;;;34.10;29.02;100332.53;4898159;28;101783;-85
2021/07/23 09:55:48;;;;;;;7.57;5.82;;;;;;;34.02;28.21;100326.19;4930929;28;100981;-85
2021/07/23 09:58:21;;;;;;;7.55;5.95;;;;;;;33.96;27.71;100324.28;4895062;28;97247;-84
2021/07/23 10:00:55;;;;;;;10.50;6.18;;;;;;;33.40;28.22;100332.63;4927033;28;97391;-85
2021/07/23 10:03:23;;;;;;;12.68;5.70;;;;;;;32.86;29.17;100328.69;4927340;28;101937;-85
2021/07/23 10:05:59;;;;;;;8.98;6.60;;;;;;;32.98;29.31;100336.28;4914459;28;97902;-85
2021/07/23 10:08:29;;;;;;;6.28;5.68;;;;;;;32.97;29.09;100330.03;4899441;28;97318;-86
2021/07/23 10:10:55;;;;;;;10.25;5.50;;;;;;;32.42;29.55;100334.34;4915690;28;96906;-88
2021/07/23 10:13:27;;;;;;;7.30;5.47;;;;;;;32.38;29.95;100325.75;4914885;28;99948;-85
2021/07/23 10:15:53;;;;;;;6.70;5.88;;;;;;;32.52;29.59;100324.00;4917569;28;101495;-85
2021/07/23 10:18:18;;;;;;;6.18;5.57;;;;;;;32.27;30.03;100323.53;4926315;28;97578;-85
2021/07/23 10:20:46;;;;;;;7.32;5.93;;;;;;;32.28;30.60;100316.22;4894826;28;96986;-85
2021/07/23 10:23:16;;;;;;;14.07;5.68;;;;;;;32.28;30.86;100308.91;4897280;28;101382;-83
2021/07/23 10:25:42;;;;;;;176.40;20.20;;;;;;;32.34;31.56;100302.72;4925950;28;101409;-86
2021/07/23 10:28:10;;;;;;;11.10;5.57;;;;;;;32.08;29.81;100306.00;4904561;28;97110;-86
2021/07/23 10:30:36;;;;;;;7.88;6.47;;;;;;;32.04;30.73;100303.88;4945387;28;97572;-86
2021/07/23 10:33:04;;;;;;;6.97;6.28;;;;;;;31.74;31.62;100307.50;4932411;28;101403;-87
2021/07/23 10:35:31;;;;;;;9.02;6.55;;;;;;;31.24;30.21;100295.56;4918591;28;101554;-87
2021/07/23 10:37:57;;;;;;;8.93;6.38;;;;;;;31.26;30.16;100296.19;4931621;28;96992;-83
2021/07/23 10:40:34;;;;;;;13.45;6.15;;;;;;;31.07;30.83;100307.59;4915532;28;96813;-87
2021/07/23 10:42:59;;;;;;;11.73;6.25;;;;;;;30.70;30.78;100301.16;4897559;28;100749;-85
2021/07/23 10:45:42;;;;;;;22.60;6.90;;;;;;;30.35;31.91;100295.38;4931527;28;101088;-90
2021/07/23 10:48:07;;;;;;;12.88;6.35;;;;;;;30.49;31.18;100290.19;4901727;28;96766;-92
2021/07/23 10:50:39;;;;;;;7.07;6.10;;;;;;;30.21;31.52;100285.31;4901147;28;96859;-91
2021/07/23 10:53:27;;;;;;;10.00;6.30;;;;;;;30.03;31.20;100291.00;4915438;28;101385;-91
2021/07/23 10:55:52;;;;;;;7.28;5.88;;;;;;;29.90;31.90;100285.34;4932671;28;97392;-91
2021/07/23 10:58:29;;;;;;;9.68;6.40;;;;;;;29.81;31.49;100281.00;4916208;28;96776;-91
2021/07/23 11:00:59;;;;;;;8.25;6.50;;;;;;;29.71;32.31;100281.22;4900562;28;97988;-91
2021/07/23 11:03:41;;;;;;;9.60;6.90;;;;;;;29.59;32.95;100277.22;4932335;28;100806;-91
2021/07/23 11:06:13;;;;;;;8.05;6.05;;;;;;;29.48;33.88;100281.16;4915640;28;101100;-91
2021/07/23 11:08:49;;;;;;;12.27;6.25;;;;;;;29.44;34.05;100279.78;4915711;28;96852;-92
2021/07/23 11:11:14;;;;;;;9.52;5.88;;;;;;;29.27;34.58;100281.75;4916547;28;97266;-91
2021/07/23 11:13:41;;;;;;;8.82;6.97;;;;;;;29.10;34.10;100287.19;4932495;28;100282;-91
2021/07/23 11:16:11;;;;;;;8.50;6.55;;;;;;;28.98;33.92;100276.91;4915399;28;102734;-91
2021/07/23 11:18:58;;;;;;;8.35;6.22;;;;;;;28.95;34.22;100279.94;4929269;28;98452;-91
2021/07/23 11:21:36;;;;;;;9.57;6.07;;;;;;;28.83;34.95;100277.59;4898464;28;97165;-91
2021/07/23 11:24:22;;;;;;;7.72;6.55;;;;;;;28.56;34.83;100277.97;4912930;28;101604;-91